sensor_id;sensor_type;location;lat;lon;timestamp;P1;durP1;ratioP1;P2;durP2;ratioP2
21337;SDS011;72379;50.880;4.350;2024-02-23T00:00:44;5.20;;;1.13;;
21337;SDS011;72379;50.880;4.350;2024-02-23T00:03:10;4.40;;;0.97;;
21337;SDS011;72379;50.880;4.350;2024-02-23T00:05:35;1.83;;;0.77;;
21337;SDS011;72379;50.880;4.350;2024-02-23T00:08:01;3.73;;;1.27;;
21337;SDS011;72379;50.880;4.350;2024-02-23T00:10:27;2.17;;;0.80;;
21337;SDS011;72379;50.880;4.350;2024-02-23T00:12:53;3.50;;;0.90;;
21337;SDS011;72379;50.880;4.350;2024-02-23T00:15:19;3.33;;;0.87;;
21337;SDS011;72379;50.880;4.350;2024-02-23T00:17:45;2.33;;;0.77;;
21337;SDS011;72379;50.880;4.350;2024-02-23T00:20:11;4.33;;;0.87;;
21337;SDS011;72379;50.880;4.350;2024-02-23T00:22:37;3.27;;;0.90;;
21337;SDS011;72379;50.880;4.350;2024-02-23T00:25:03;2.00;;;0.80;;
21337;SDS011;72379;50.880;4.350;2024-02-23T00:27:29;6.77;;;1.07;;
21337;SDS011;72379;50.880;4.350;2024-02-23T00:29:55;2.80;;;0.67;;
21337;SDS011;72379;50.880;4.350;2024-02-23T00:32:21;6.60;;;0.70;;
21337;SDS011;72379;50.880;4.350;2024-02-23T00:34:47;5.03;;;0.83;;
21337;SDS011;72379;50.880;4.350;2024-02-23T00:37:13;1.57;;;0.60;;
21337;SDS011;72379;50.880;4.350;2024-02-23T00:39:40;4.80;;;0.67;;
21337;SDS011;72379;50.880;4.350;2024-02-23T00:42:06;4.17;;;1.00;;
21337;SDS011;72379;50.880;4.350;2024-02-23T00:44:32;4.20;;;0.80;;
21337;SDS011;72379;50.880;4.350;2024-02-23T00:46:58;7.17;;;0.90;;
21337;SDS011;72379;50.880;4.350;2024-02-23T00:49:27;4.63;;;0.60;;
21337;SDS011;72379;50.880;4.350;2024-02-23T00:51:53;4.50;;;0.70;;
21337;SDS011;72379;50.880;4.350;2024-02-23T00:54:22;2.20;;;0.60;;
21337;SDS011;72379;50.880;4.350;2024-02-23T00:56:47;1.53;;;0.50;;
21337;SDS011;72379;50.880;4.350;2024-02-23T00:59:14;1.63;;;0.50;;
21337;SDS011;72379;50.880;4.350;2024-02-23T01:01:39;3.03;;;0.70;;
21337;SDS011;72379;50.880;4.350;2024-02-23T01:04:05;3.27;;;0.83;;
21337;SDS011;72379;50.880;4.350;2024-02-23T01:06:31;1.77;;;0.60;;
21337;SDS011;72379;50.880;4.350;2024-02-23T01:08:57;1.77;;;0.70;;
21337;SDS011;72379;50.880;4.350;2024-02-23T01:11:24;3.80;;;0.80;;
21337;SDS011;72379;50.880;4.350;2024-02-23T01:13:50;3.90;;;0.83;;
21337;SDS011;72379;50.880;4.350;2024-02-23T01:16:18;4.93;;;0.80;;
21337;SDS011;72379;50.880;4.350;2024-02-23T01:18:43;4.27;;;0.93;;
21337;SDS011;72379;50.880;4.350;2024-02-23T01:21:10;4.87;;;1.00;;
21337;SDS011;72379;50.880;4.350;2024-02-23T01:23:36;3.97;;;0.70;;
21337;SDS011;72379;50.880;4.350;2024-02-23T01:26:01;2.47;;;1.00;;
21337;SDS011;72379;50.880;4.350;2024-02-23T01:28:28;3.90;;;0.83;;
21337;SDS011;72379;50.880;4.350;2024-02-23T01:30:54;7.00;;;0.90;;
21337;SDS011;72379;50.880;4.350;2024-02-23T01:33:20;3.13;;;0.90;;
21337;SDS011;72379;50.880;4.350;2024-02-23T01:35:46;4.43;;;0.90;;
21337;SDS011;72379;50.880;4.350;2024-02-23T01:38:12;6.13;;;0.87;;
21337;SDS011;72379;50.880;4.350;2024-02-23T01:40:44;4.37;;;0.60;;
21337;SDS011;72379;50.880;4.350;2024-02-23T01:43:10;4.63;;;1.03;;
21337;SDS011;72379;50.880;4.350;2024-02-23T01:45:36;2.60;;;0.70;;
21337;SDS011;72379;50.880;4.350;2024-02-23T01:48:06;5.30;;;0.80;;
21337;SDS011;72379;50.880;4.350;2024-02-23T01:50:32;2.70;;;1.10;;
21337;SDS011;72379;50.880;4.350;2024-02-23T01:52:59;1.53;;;0.90;;
21337;SDS011;72379;50.880;4.350;2024-02-23T01:55:27;6.70;;;0.97;;
21337;SDS011;72379;50.880;4.350;2024-02-23T01:57:53;3.00;;;0.90;;
21337;SDS011;72379;50.880;4.350;2024-02-23T02:00:20;5.80;;;1.07;;
21337;SDS011;72379;50.880;4.350;2024-02-23T02:02:47;5.27;;;1.10;;
21337;SDS011;72379;50.880;4.350;2024-02-23T02:05:13;2.97;;;1.10;;
21337;SDS011;72379;50.880;4.350;2024-02-23T02:07:41;6.47;;;1.47;;
21337;SDS011;72379;50.880;4.350;2024-02-23T02:10:08;5.33;;;1.30;;
21337;SDS011;72379;50.880;4.350;2024-02-23T02:12:34;1.70;;;0.80;;
21337;SDS011;72379;50.880;4.350;2024-02-23T02:15:01;7.47;;;1.30;;
21337;SDS011;72379;50.880;4.350;2024-02-23T02:17:29;4.03;;;1.20;;
21337;SDS011;72379;50.880;4.350;2024-02-23T02:19:55;1.30;;;0.60;;
21337;SDS011;72379;50.880;4.350;2024-02-23T02:22:24;1.07;;;0.77;;
21337;SDS011;72379;50.880;4.350;2024-02-23T02:24:49;6.60;;;1.37;;
21337;SDS011;72379;50.880;4.350;2024-02-23T02:27:15;2.70;;;0.80;;
21337;SDS011;72379;50.880;4.350;2024-02-23T02:29:41;10.50;;;1.07;;
21337;SDS011;72379;50.880;4.350;2024-02-23T02:32:08;11.30;;;1.30;;
21337;SDS011;72379;50.880;4.350;2024-02-23T02:34:34;5.87;;;1.00;;
21337;SDS011;72379;50.880;4.350;2024-02-23T02:37:00;6.43;;;1.03;;
21337;SDS011;72379;50.880;4.350;2024-02-23T02:39:26;5.93;;;1.17;;
21337;SDS011;72379;50.880;4.350;2024-02-23T02:41:53;5.83;;;1.00;;
21337;SDS011;72379;50.880;4.350;2024-02-23T02:44:19;5.23;;;1.20;;
21337;SDS011;72379;50.880;4.350;2024-02-23T02:46:45;4.53;;;1.10;;
21337;SDS011;72379;50.880;4.350;2024-02-23T02:49:11;3.30;;;0.80;;
21337;SDS011;72379;50.880;4.350;2024-02-23T02:51:37;6.47;;;1.20;;
21337;SDS011;72379;50.880;4.350;2024-02-23T02:54:04;7.90;;;1.30;;
21337;SDS011;72379;50.880;4.350;2024-02-23T02:56:29;6.03;;;1.13;;
21337;SDS011;72379;50.880;4.350;2024-02-23T02:58:55;6.77;;;1.33;;
21337;SDS011;72379;50.880;4.350;2024-02-23T03:01:21;6.80;;;0.73;;
21337;SDS011;72379;50.880;4.350;2024-02-23T03:03:47;6.30;;;1.37;;
21337;SDS011;72379;50.880;4.350;2024-02-23T03:06:13;4.97;;;1.13;;
21337;SDS011;72379;50.880;4.350;2024-02-23T03:08:41;4.03;;;0.67;;
21337;SDS011;72379;50.880;4.350;2024-02-23T03:11:07;11.27;;;1.30;;
21337;SDS011;72379;50.880;4.350;2024-02-23T03:13:33;6.33;;;1.10;;
21337;SDS011;72379;50.880;4.350;2024-02-23T03:15:59;7.37;;;1.40;;
21337;SDS011;72379;50.880;4.350;2024-02-23T03:18:25;4.23;;;0.87;;
21337;SDS011;72379;50.880;4.350;2024-02-23T03:20:54;5.10;;;0.80;;
21337;SDS011;72379;50.880;4.350;2024-02-23T03:23:20;10.33;;;1.33;;
21337;SDS011;72379;50.880;4.350;2024-02-23T03:25:46;3.77;;;1.00;;
21337;SDS011;72379;50.880;4.350;2024-02-23T03:28:11;2.57;;;0.70;;
21337;SDS011;72379;50.880;4.350;2024-02-23T03:30:37;3.67;;;1.57;;
21337;SDS011;72379;50.880;4.350;2024-02-23T03:33:05;5.93;;;1.20;;
21337;SDS011;72379;50.880;4.350;2024-02-23T03:35:31;11.83;;;1.67;;
21337;SDS011;72379;50.880;4.350;2024-02-23T03:37:57;6.63;;;0.97;;
21337;SDS011;72379;50.880;4.350;2024-02-23T03:40:24;5.37;;;1.27;;
21337;SDS011;72379;50.880;4.350;2024-02-23T03:42:51;5.23;;;1.10;;
21337;SDS011;72379;50.880;4.350;2024-02-23T03:45:16;7.27;;;1.27;;
21337;SDS011;72379;50.880;4.350;2024-02-23T03:47:42;2.80;;;1.07;;
21337;SDS011;72379;50.880;4.350;2024-02-23T03:50:08;7.70;;;1.33;;
21337;SDS011;72379;50.880;4.350;2024-02-23T03:52:34;3.63;;;1.00;;
21337;SDS011;72379;50.880;4.350;2024-02-23T03:55:00;6.00;;;1.30;;
21337;SDS011;72379;50.880;4.350;2024-02-23T03:57:26;4.60;;;1.00;;
21337;SDS011;72379;50.880;4.350;2024-02-23T03:59:55;10.70;;;1.40;;
21337;SDS011;72379;50.880;4.350;2024-02-23T04:02:21;6.77;;;1.00;;
21337;SDS011;72379;50.880;4.350;2024-02-23T04:04:47;7.47;;;1.43;;
21337;SDS011;72379;50.880;4.350;2024-02-23T04:07:13;4.50;;;1.00;;
21337;SDS011;72379;50.880;4.350;2024-02-23T04:09:39;6.33;;;1.10;;
21337;SDS011;72379;50.880;4.350;2024-02-23T04:12:05;7.07;;;0.97;;
21337;SDS011;72379;50.880;4.350;2024-02-23T04:14:32;5.00;;;1.63;;
21337;SDS011;72379;50.880;4.350;2024-02-23T04:17:01;5.87;;;0.83;;
21337;SDS011;72379;50.880;4.350;2024-02-23T04:19:28;11.50;;;1.60;;
21337;SDS011;72379;50.880;4.350;2024-02-23T04:21:54;3.93;;;1.33;;
21337;SDS011;72379;50.880;4.350;2024-02-23T04:24:20;10.93;;;1.47;;
21337;SDS011;72379;50.880;4.350;2024-02-23T04:26:46;5.13;;;1.27;;
21337;SDS011;72379;50.880;4.350;2024-02-23T04:29:12;3.90;;;1.00;;
21337;SDS011;72379;50.880;4.350;2024-02-23T04:31:38;13.47;;;1.53;;
21337;SDS011;72379;50.880;4.350;2024-02-23T04:34:04;7.80;;;1.70;;
21337;SDS011;72379;50.880;4.350;2024-02-23T04:36:30;13.03;;;1.80;;
21337;SDS011;72379;50.880;4.350;2024-02-23T04:38:56;9.10;;;1.10;;
21337;SDS011;72379;50.880;4.350;2024-02-23T04:41:22;6.17;;;1.33;;
21337;SDS011;72379;50.880;4.350;2024-02-23T04:43:49;6.93;;;1.33;;
21337;SDS011;72379;50.880;4.350;2024-02-23T04:46:15;7.87;;;1.30;;
21337;SDS011;72379;50.880;4.350;2024-02-23T04:48:41;9.93;;;1.47;;
21337;SDS011;72379;50.880;4.350;2024-02-23T04:51:07;2.93;;;1.10;;
21337;SDS011;72379;50.880;4.350;2024-02-23T04:53:37;8.73;;;1.60;;
21337;SDS011;72379;50.880;4.350;2024-02-23T04:56:04;4.37;;;0.90;;
21337;SDS011;72379;50.880;4.350;2024-02-23T04:58:30;10.13;;;1.50;;
21337;SDS011;72379;50.880;4.350;2024-02-23T05:00:56;7.07;;;1.47;;
21337;SDS011;72379;50.880;4.350;2024-02-23T05:03:21;12.57;;;1.40;;
21337;SDS011;72379;50.880;4.350;2024-02-23T05:05:47;6.17;;;1.30;;
21337;SDS011;72379;50.880;4.350;2024-02-23T05:08:18;8.70;;;2.27;;
21337;SDS011;72379;50.880;4.350;2024-02-23T05:10:45;2.27;;;1.20;;
21337;SDS011;72379;50.880;4.350;2024-02-23T05:13:12;9.27;;;2.20;;
21337;SDS011;72379;50.880;4.350;2024-02-23T05:15:38;10.43;;;2.23;;
21337;SDS011;72379;50.880;4.350;2024-02-23T05:18:03;9.13;;;2.13;;
21337;SDS011;72379;50.880;4.350;2024-02-23T05:20:30;7.87;;;1.97;;
21337;SDS011;72379;50.880;4.350;2024-02-23T05:22:56;7.23;;;2.20;;
21337;SDS011;72379;50.880;4.350;2024-02-23T05:25:21;4.73;;;1.57;;
21337;SDS011;72379;50.880;4.350;2024-02-23T05:27:47;13.27;;;1.30;;
21337;SDS011;72379;50.880;4.350;2024-02-23T05:30:13;6.00;;;1.40;;
21337;SDS011;72379;50.880;4.350;2024-02-23T05:32:39;9.23;;;1.37;;
21337;SDS011;72379;50.880;4.350;2024-02-23T05:35:05;5.30;;;1.33;;
21337;SDS011;72379;50.880;4.350;2024-02-23T05:37:31;8.33;;;1.33;;
21337;SDS011;72379;50.880;4.350;2024-02-23T05:39:57;11.10;;;1.80;;
21337;SDS011;72379;50.880;4.350;2024-02-23T05:42:25;8.13;;;1.40;;
21337;SDS011;72379;50.880;4.350;2024-02-23T05:44:51;7.17;;;1.63;;
21337;SDS011;72379;50.880;4.350;2024-02-23T05:47:17;3.83;;;1.27;;
21337;SDS011;72379;50.880;4.350;2024-02-23T05:49:43;6.47;;;1.70;;
21337;SDS011;72379;50.880;4.350;2024-02-23T05:52:09;8.77;;;1.33;;
21337;SDS011;72379;50.880;4.350;2024-02-23T05:54:35;6.43;;;1.67;;
21337;SDS011;72379;50.880;4.350;2024-02-23T05:57:01;9.77;;;1.37;;
21337;SDS011;72379;50.880;4.350;2024-02-23T05:59:27;8.23;;;1.67;;
21337;SDS011;72379;50.880;4.350;2024-02-23T06:01:53;3.30;;;1.30;;
21337;SDS011;72379;50.880;4.350;2024-02-23T06:04:22;12.23;;;1.97;;
21337;SDS011;72379;50.880;4.350;2024-02-23T06:06:48;4.87;;;1.40;;
21337;SDS011;72379;50.880;4.350;2024-02-23T06:09:14;7.03;;;1.70;;
21337;SDS011;72379;50.880;4.350;2024-02-23T06:11:39;5.57;;;1.20;;
21337;SDS011;72379;50.880;4.350;2024-02-23T06:14:05;5.30;;;1.43;;
21337;SDS011;72379;50.880;4.350;2024-02-23T06:16:31;13.97;;;1.90;;
21337;SDS011;72379;50.880;4.350;2024-02-23T06:18:58;13.10;;;1.87;;
21337;SDS011;72379;50.880;4.350;2024-02-23T06:21:24;4.20;;;0.97;;
21337;SDS011;72379;50.880;4.350;2024-02-23T06:23:50;9.67;;;1.60;;
21337;SDS011;72379;50.880;4.350;2024-02-23T06:26:16;8.17;;;1.97;;
21337;SDS011;72379;50.880;4.350;2024-02-23T06:28:42;7.57;;;1.37;;
21337;SDS011;72379;50.880;4.350;2024-02-23T06:31:08;6.70;;;1.70;;
21337;SDS011;72379;50.880;4.350;2024-02-23T06:33:34;8.73;;;1.50;;
21337;SDS011;72379;50.880;4.350;2024-02-23T06:36:00;3.93;;;1.27;;
21337;SDS011;72379;50.880;4.350;2024-02-23T06:38:29;8.40;;;1.57;;
21337;SDS011;72379;50.880;4.350;2024-02-23T06:40:55;5.53;;;1.57;;
21337;SDS011;72379;50.880;4.350;2024-02-23T06:43:21;5.97;;;1.40;;
21337;SDS011;72379;50.880;4.350;2024-02-23T06:45:47;6.73;;;1.40;;
21337;SDS011;72379;50.880;4.350;2024-02-23T06:48:13;10.90;;;1.60;;
21337;SDS011;72379;50.880;4.350;2024-02-23T06:50:39;7.33;;;1.60;;
21337;SDS011;72379;50.880;4.350;2024-02-23T06:53:05;15.67;;;1.50;;
21337;SDS011;72379;50.880;4.350;2024-02-23T06:55:32;12.00;;;1.93;;
21337;SDS011;72379;50.880;4.350;2024-02-23T06:57:59;7.17;;;1.60;;
21337;SDS011;72379;50.880;4.350;2024-02-23T07:00:25;5.40;;;1.30;;
21337;SDS011;72379;50.880;4.350;2024-02-23T07:02:51;13.13;;;1.97;;
21337;SDS011;72379;50.880;4.350;2024-02-23T07:05:17;7.27;;;1.40;;
21337;SDS011;72379;50.880;4.350;2024-02-23T07:07:43;8.83;;;1.60;;
21337;SDS011;72379;50.880;4.350;2024-02-23T07:10:10;5.73;;;0.80;;
21337;SDS011;72379;50.880;4.350;2024-02-23T07:12:37;7.07;;;1.50;;
21337;SDS011;72379;50.880;4.350;2024-02-23T07:15:03;8.37;;;1.60;;
21337;SDS011;72379;50.880;4.350;2024-02-23T07:17:29;6.20;;;1.70;;
21337;SDS011;72379;50.880;4.350;2024-02-23T07:19:54;8.53;;;2.10;;
21337;SDS011;72379;50.880;4.350;2024-02-23T07:22:29;7.33;;;1.57;;
21337;SDS011;72379;50.880;4.350;2024-02-23T07:24:54;7.00;;;1.93;;
21337;SDS011;72379;50.880;4.350;2024-02-23T07:27:20;4.97;;;1.20;;
21337;SDS011;72379;50.880;4.350;2024-02-23T07:29:46;7.20;;;1.23;;
21337;SDS011;72379;50.880;4.350;2024-02-23T07:32:13;6.47;;;1.73;;
21337;SDS011;72379;50.880;4.350;2024-02-23T07:34:39;3.00;;;1.30;;
21337;SDS011;72379;50.880;4.350;2024-02-23T07:37:05;11.10;;;1.73;;
21337;SDS011;72379;50.880;4.350;2024-02-23T07:39:30;11.63;;;1.50;;
21337;SDS011;72379;50.880;4.350;2024-02-23T07:41:56;9.73;;;2.13;;
21337;SDS011;72379;50.880;4.350;2024-02-23T07:44:23;5.17;;;1.03;;
21337;SDS011;72379;50.880;4.350;2024-02-23T07:46:50;7.87;;;1.67;;
21337;SDS011;72379;50.880;4.350;2024-02-23T07:49:19;4.90;;;1.17;;
21337;SDS011;72379;50.880;4.350;2024-02-23T07:51:45;10.00;;;2.00;;
21337;SDS011;72379;50.880;4.350;2024-02-23T07:54:11;7.17;;;1.47;;
21337;SDS011;72379;50.880;4.350;2024-02-23T07:56:36;7.03;;;1.60;;
21337;SDS011;72379;50.880;4.350;2024-02-23T07:59:02;4.70;;;1.40;;
21337;SDS011;72379;50.880;4.350;2024-02-23T08:01:28;6.43;;;1.77;;
21337;SDS011;72379;50.880;4.350;2024-02-23T08:03:55;9.90;;;1.67;;
21337;SDS011;72379;50.880;4.350;2024-02-23T08:06:20;6.50;;;1.40;;
21337;SDS011;72379;50.880;4.350;2024-02-23T08:08:47;9.00;;;1.53;;
21337;SDS011;72379;50.880;4.350;2024-02-23T08:11:12;12.60;;;1.70;;
21337;SDS011;72379;50.880;4.350;2024-02-23T08:13:38;4.73;;;1.80;;
21337;SDS011;72379;50.880;4.350;2024-02-23T08:16:06;3.00;;;1.47;;
21337;SDS011;72379;50.880;4.350;2024-02-23T08:18:31;3.87;;;1.40;;
21337;SDS011;72379;50.880;4.350;2024-02-23T08:20:58;7.53;;;1.67;;
21337;SDS011;72379;50.880;4.350;2024-02-23T08:23:23;4.03;;;1.10;;
21337;SDS011;72379;50.880;4.350;2024-02-23T08:25:50;8.47;;;2.00;;
21337;SDS011;72379;50.880;4.350;2024-02-23T08:28:18;7.77;;;1.80;;
21337;SDS011;72379;50.880;4.350;2024-02-23T08:30:44;5.10;;;1.90;;
21337;SDS011;72379;50.880;4.350;2024-02-23T08:33:11;3.53;;;1.30;;
21337;SDS011;72379;50.880;4.350;2024-02-23T08:35:37;8.10;;;1.20;;
21337;SDS011;72379;50.880;4.350;2024-02-23T08:38:02;4.23;;;1.10;;
21337;SDS011;72379;50.880;4.350;2024-02-23T08:40:29;12.90;;;1.37;;
21337;SDS011;72379;50.880;4.350;2024-02-23T08:42:55;12.97;;;1.70;;
21337;SDS011;72379;50.880;4.350;2024-02-23T08:45:21;8.70;;;1.87;;
21337;SDS011;72379;50.880;4.350;2024-02-23T08:47:47;4.33;;;1.20;;
21337;SDS011;72379;50.880;4.350;2024-02-23T08:50:13;10.53;;;1.33;;
21337;SDS011;72379;50.880;4.350;2024-02-23T08:52:39;4.93;;;1.73;;
21337;SDS011;72379;50.880;4.350;2024-02-23T08:55:06;7.83;;;1.70;;
21337;SDS011;72379;50.880;4.350;2024-02-23T08:57:32;8.13;;;2.27;;
21337;SDS011;72379;50.880;4.350;2024-02-23T08:59:58;10.57;;;1.90;;
21337;SDS011;72379;50.880;4.350;2024-02-23T09:02:24;5.87;;;2.00;;
21337;SDS011;72379;50.880;4.350;2024-02-23T09:04:50;4.60;;;1.73;;
21337;SDS011;72379;50.880;4.350;2024-02-23T09:07:17;11.73;;;2.07;;
21337;SDS011;72379;50.880;4.350;2024-02-23T09:09:46;7.87;;;1.37;;
21337;SDS011;72379;50.880;4.350;2024-02-23T09:12:13;8.60;;;1.73;;
21337;SDS011;72379;50.880;4.350;2024-02-23T09:14:42;7.17;;;1.50;;
21337;SDS011;72379;50.880;4.350;2024-02-23T09:17:08;7.83;;;2.00;;
21337;SDS011;72379;50.880;4.350;2024-02-23T09:19:35;5.67;;;1.63;;
21337;SDS011;72379;50.880;4.350;2024-02-23T09:22:01;4.93;;;1.70;;
21337;SDS011;72379;50.880;4.350;2024-02-23T09:24:28;7.73;;;2.30;;
21337;SDS011;72379;50.880;4.350;2024-02-23T09:26:53;4.73;;;2.17;;
21337;SDS011;72379;50.880;4.350;2024-02-23T09:29:20;7.53;;;2.60;;
21337;SDS011;72379;50.880;4.350;2024-02-23T09:31:46;13.00;;;2.23;;
21337;SDS011;72379;50.880;4.350;2024-02-23T09:34:12;12.83;;;2.90;;
21337;SDS011;72379;50.880;4.350;2024-02-23T09:36:39;5.90;;;1.90;;
21337;SDS011;72379;50.880;4.350;2024-02-23T09:39:04;8.40;;;2.27;;
21337;SDS011;72379;50.880;4.350;2024-02-23T09:41:30;7.43;;;1.90;;
21337;SDS011;72379;50.880;4.350;2024-02-23T09:43:58;8.10;;;1.73;;
21337;SDS011;72379;50.880;4.350;2024-02-23T09:46:25;8.27;;;2.27;;
21337;SDS011;72379;50.880;4.350;2024-02-23T09:48:51;8.77;;;2.20;;
21337;SDS011;72379;50.880;4.350;2024-02-23T09:51:18;10.70;;;2.40;;
21337;SDS011;72379;50.880;4.350;2024-02-23T09:53:45;6.97;;;1.80;;
21337;SDS011;72379;50.880;4.350;2024-02-23T09:56:14;14.80;;;2.60;;
21337;SDS011;72379;50.880;4.350;2024-02-23T09:58:42;5.33;;;1.93;;
21337;SDS011;72379;50.880;4.350;2024-02-23T10:01:08;6.37;;;1.23;;
21337;SDS011;72379;50.880;4.350;2024-02-23T10:03:37;18.00;;;2.63;;
21337;SDS011;72379;50.880;4.350;2024-02-23T10:06:04;5.00;;;2.00;;
21337;SDS011;72379;50.880;4.350;2024-02-23T10:08:30;7.20;;;1.90;;
21337;SDS011;72379;50.880;4.350;2024-02-23T10:10:56;7.10;;;2.17;;
21337;SDS011;72379;50.880;4.350;2024-02-23T10:13:23;9.20;;;2.17;;
21337;SDS011;72379;50.880;4.350;2024-02-23T10:15:51;5.27;;;1.93;;
21337;SDS011;72379;50.880;4.350;2024-02-23T10:18:23;5.20;;;1.33;;
21337;SDS011;72379;50.880;4.350;2024-02-23T10:21:23;4.30;;;1.10;;
21337;SDS011;72379;50.880;4.350;2024-02-23T10:23:50;5.63;;;1.60;;
21337;SDS011;72379;50.880;4.350;2024-02-23T10:26:17;8.00;;;1.50;;
21337;SDS011;72379;50.880;4.350;2024-02-23T10:28:51;7.03;;;1.27;;
21337;SDS011;72379;50.880;4.350;2024-02-23T10:31:49;5.43;;;1.83;;
21337;SDS011;72379;50.880;4.350;2024-02-23T10:34:18;8.30;;;2.00;;
21337;SDS011;72379;50.880;4.350;2024-02-23T10:36:45;7.60;;;2.13;;
21337;SDS011;72379;50.880;4.350;2024-02-23T10:39:15;7.30;;;2.40;;
21337;SDS011;72379;50.880;4.350;2024-02-23T10:41:45;12.50;;;2.43;;
21337;SDS011;72379;50.880;4.350;2024-02-23T10:44:16;7.90;;;2.30;;
21337;SDS011;72379;50.880;4.350;2024-02-23T10:46:43;10.67;;;2.87;;
21337;SDS011;72379;50.880;4.350;2024-02-23T10:49:10;12.10;;;2.80;;
21337;SDS011;72379;50.880;4.350;2024-02-23T10:51:39;9.30;;;2.50;;
21337;SDS011;72379;50.880;4.350;2024-02-23T10:54:07;6.67;;;2.27;;
21337;SDS011;72379;50.880;4.350;2024-02-23T10:56:33;7.57;;;2.03;;
21337;SDS011;72379;50.880;4.350;2024-02-23T10:58:59;9.13;;;2.30;;
21337;SDS011;72379;50.880;4.350;2024-02-23T11:01:25;10.20;;;1.93;;
21337;SDS011;72379;50.880;4.350;2024-02-23T11:03:52;3.67;;;1.57;;
21337;SDS011;72379;50.880;4.350;2024-02-23T11:06:19;7.27;;;1.70;;
21337;SDS011;72379;50.880;4.350;2024-02-23T11:08:46;6.50;;;2.03;;
21337;SDS011;72379;50.880;4.350;2024-02-23T11:11:16;10.67;;;2.13;;
21337;SDS011;72379;50.880;4.350;2024-02-23T11:13:45;7.57;;;2.03;;
21337;SDS011;72379;50.880;4.350;2024-02-23T11:16:12;10.50;;;2.47;;
21337;SDS011;72379;50.880;4.350;2024-02-23T11:18:48;8.13;;;2.20;;
21337;SDS011;72379;50.880;4.350;2024-02-23T11:21:14;6.50;;;2.07;;
21337;SDS011;72379;50.880;4.350;2024-02-23T11:23:44;7.20;;;1.87;;
21337;SDS011;72379;50.880;4.350;2024-02-23T11:26:14;29.03;;;3.83;;
21337;SDS011;72379;50.880;4.350;2024-02-23T11:28:49;7.93;;;2.40;;
21337;SDS011;72379;50.880;4.350;2024-02-23T11:31:20;8.07;;;2.27;;
21337;SDS011;72379;50.880;4.350;2024-02-23T11:33:50;8.93;;;2.33;;
21337;SDS011;72379;50.880;4.350;2024-02-23T11:36:32;8.50;;;2.33;;
21337;SDS011;72379;50.880;4.350;2024-02-23T11:39:00;3.97;;;1.70;;
21337;SDS011;72379;50.880;4.350;2024-02-23T11:41:26;5.80;;;1.83;;
21337;SDS011;72379;50.880;4.350;2024-02-23T11:43:53;6.57;;;1.57;;
21337;SDS011;72379;50.880;4.350;2024-02-23T11:46:20;6.23;;;1.97;;
21337;SDS011;72379;50.880;4.350;2024-02-23T11:48:47;7.53;;;1.80;;
21337;SDS011;72379;50.880;4.350;2024-02-23T11:51:19;5.00;;;1.67;;
21337;SDS011;72379;50.880;4.350;2024-02-23T11:53:46;7.27;;;1.70;;
21337;SDS011;72379;50.880;4.350;2024-02-23T11:56:12;3.07;;;1.20;;
21337;SDS011;72379;50.880;4.350;2024-02-23T11:58:39;2.63;;;1.00;;
21337;SDS011;72379;50.880;4.350;2024-02-23T12:01:05;5.47;;;1.50;;
21337;SDS011;72379;50.880;4.350;2024-02-23T12:03:32;5.90;;;1.30;;
21337;SDS011;72379;50.880;4.350;2024-02-23T12:05:58;6.53;;;1.60;;
21337;SDS011;72379;50.880;4.350;2024-02-23T12:08:25;1.30;;;0.70;;
21337;SDS011;72379;50.880;4.350;2024-02-23T12:10:55;3.10;;;1.17;;
21337;SDS011;72379;50.880;4.350;2024-02-23T12:13:24;2.60;;;1.30;;
21337;SDS011;72379;50.880;4.350;2024-02-23T12:15:53;9.47;;;1.83;;
21337;SDS011;72379;50.880;4.350;2024-02-23T12:18:22;3.03;;;1.27;;
21337;SDS011;72379;50.880;4.350;2024-02-23T12:20:48;5.83;;;1.23;;
21337;SDS011;72379;50.880;4.350;2024-02-23T12:23:15;5.33;;;1.53;;
21337;SDS011;72379;50.880;4.350;2024-02-23T12:25:51;4.27;;;1.23;;
21337;SDS011;72379;50.880;4.350;2024-02-23T12:28:18;4.33;;;1.03;;
21337;SDS011;72379;50.880;4.350;2024-02-23T12:30:44;9.77;;;1.63;;
21337;SDS011;72379;50.880;4.350;2024-02-23T12:33:12;10.70;;;1.63;;
21337;SDS011;72379;50.880;4.350;2024-02-23T12:35:40;8.90;;;1.57;;
21337;SDS011;72379;50.880;4.350;2024-02-23T12:38:06;4.97;;;1.27;;
21337;SDS011;72379;50.880;4.350;2024-02-23T12:40:33;6.33;;;1.53;;
21337;SDS011;72379;50.880;4.350;2024-02-23T12:42:58;5.30;;;1.20;;
21337;SDS011;72379;50.880;4.350;2024-02-23T12:45:24;6.03;;;1.63;;
21337;SDS011;72379;50.880;4.350;2024-02-23T12:47:50;9.67;;;1.37;;
21337;SDS011;72379;50.880;4.350;2024-02-23T12:50:16;5.73;;;1.40;;
21337;SDS011;72379;50.880;4.350;2024-02-23T12:52:42;7.70;;;1.60;;
21337;SDS011;72379;50.880;4.350;2024-02-23T12:55:08;5.00;;;1.70;;
21337;SDS011;72379;50.880;4.350;2024-02-23T12:57:34;9.00;;;2.53;;
21337;SDS011;72379;50.880;4.350;2024-02-23T13:00:00;9.40;;;2.63;;
21337;SDS011;72379;50.880;4.350;2024-02-23T13:02:26;7.83;;;2.73;;
21337;SDS011;72379;50.880;4.350;2024-02-23T13:04:52;7.70;;;2.70;;
21337;SDS011;72379;50.880;4.350;2024-02-23T13:07:18;9.00;;;2.40;;
21337;SDS011;72379;50.880;4.350;2024-02-23T13:09:44;7.67;;;1.93;;
21337;SDS011;72379;50.880;4.350;2024-02-23T13:12:10;7.70;;;2.50;;
21337;SDS011;72379;50.880;4.350;2024-02-23T13:14:36;7.50;;;2.53;;
21337;SDS011;72379;50.880;4.350;2024-02-23T13:17:02;9.10;;;2.13;;
21337;SDS011;72379;50.880;4.350;2024-02-23T13:19:28;11.10;;;2.57;;
21337;SDS011;72379;50.880;4.350;2024-02-23T13:21:54;9.50;;;3.10;;
21337;SDS011;72379;50.880;4.350;2024-02-23T13:24:20;12.33;;;2.63;;
21337;SDS011;72379;50.880;4.350;2024-02-23T13:26:46;9.20;;;2.53;;
21337;SDS011;72379;50.880;4.350;2024-02-23T13:29:12;10.87;;;2.40;;
21337;SDS011;72379;50.880;4.350;2024-02-23T13:31:38;11.10;;;2.03;;
21337;SDS011;72379;50.880;4.350;2024-02-23T13:34:04;5.93;;;1.80;;
21337;SDS011;72379;50.880;4.350;2024-02-23T13:36:30;9.63;;;2.40;;
21337;SDS011;72379;50.880;4.350;2024-02-23T13:38:56;7.67;;;3.27;;
21337;SDS011;72379;50.880;4.350;2024-02-23T13:41:23;7.97;;;2.50;;
21337;SDS011;72379;50.880;4.350;2024-02-23T13:43:49;6.20;;;2.23;;
21337;SDS011;72379;50.880;4.350;2024-02-23T13:46:15;9.93;;;3.33;;
21337;SDS011;72379;50.880;4.350;2024-02-23T13:48:40;7.87;;;2.90;;
21337;SDS011;72379;50.880;4.350;2024-02-23T13:51:06;12.57;;;2.90;;
21337;SDS011;72379;50.880;4.350;2024-02-23T13:53:32;6.53;;;2.63;;
21337;SDS011;72379;50.880;4.350;2024-02-23T13:56:02;6.27;;;2.40;;
21337;SDS011;72379;50.880;4.350;2024-02-23T13:58:28;5.50;;;2.00;;
21337;SDS011;72379;50.880;4.350;2024-02-23T14:00:54;4.77;;;1.80;;
21337;SDS011;72379;50.880;4.350;2024-02-23T14:03:20;6.63;;;2.63;;
21337;SDS011;72379;50.880;4.350;2024-02-23T14:05:48;6.80;;;2.63;;
21337;SDS011;72379;50.880;4.350;2024-02-23T14:08:15;6.90;;;2.50;;
21337;SDS011;72379;50.880;4.350;2024-02-23T14:10:40;9.87;;;2.77;;
21337;SDS011;72379;50.880;4.350;2024-02-23T14:13:08;5.30;;;2.30;;
21337;SDS011;72379;50.880;4.350;2024-02-23T14:15:33;7.17;;;2.50;;
21337;SDS011;72379;50.880;4.350;2024-02-23T14:17:59;7.40;;;2.00;;
21337;SDS011;72379;50.880;4.350;2024-02-23T14:20:25;5.90;;;2.47;;
21337;SDS011;72379;50.880;4.350;2024-02-23T14:22:52;5.53;;;1.43;;
21337;SDS011;72379;50.880;4.350;2024-02-23T14:25:18;10.63;;;3.07;;
21337;SDS011;72379;50.880;4.350;2024-02-23T14:27:43;7.07;;;2.10;;
21337;SDS011;72379;50.880;4.350;2024-02-23T14:30:09;7.33;;;1.30;;
21337;SDS011;72379;50.880;4.350;2024-02-23T14:32:35;9.33;;;2.10;;
21337;SDS011;72379;50.880;4.350;2024-02-23T14:35:04;7.83;;;2.00;;
21337;SDS011;72379;50.880;4.350;2024-02-23T14:37:31;7.70;;;2.07;;
21337;SDS011;72379;50.880;4.350;2024-02-23T14:39:57;8.07;;;1.93;;
21337;SDS011;72379;50.880;4.350;2024-02-23T14:42:24;8.73;;;2.47;;